Airfield :
LOGIN :

Register | Disclaimer

   EN    FR    IT 

 










Legend :    VFR   Marginal VFR   IFR   Intensive IFR   Very Intensive IFR
Visi :
Ceiling :
>= 8 km
>= 3000ft
5 to 8 km
1000 to 3000 ft
1500m to 5 km
500 to 1000 ft
800 to 1500m
200 to 500 ft
< 800m
< 200 ft
Symbols :   Thunderstorms  Fog  Heavy snow  Heavy precipitations  Wind > 20 kt
SIGMETs :     Misc.  Thunderstorms  Icing  Turbulence  Mountain Waves  Volcanic Ashes






- Airport Elevation : 1895 ft


LSMM - Meiringen

CURRENT METAR :
  • 050650Z AUTO VRB01KT 9999NDV -RA SCT030 BKN058 OVC074 M00/M00 Q1005 RMK

EXPIRED METARs :
  • 050620Z AUTO 26003KT 230V320 9999NDV FEW030 OVC063 M00/M00 Q1005 RMK
  • 050550Z AUTO VRB02KT 9999NDV FEW028 OVC069 00/00 Q1005 RMK
  • 050520Z AUTO 09003KT 9999NDV FEW030 OVC076 00/00 Q1005 RMK
  • 050450Z AUTO 10003KT 070V140 9999NDV FEW021 BKN028 OVC079 00/00 Q1005 RMK
  • 050420Z AUTO 10003KT 050V120 9999NDV FEW002 SCT019 BKN075 M00/M00 Q1005 RMK

Expired Forecast.



MET'MAP, your aeronautical weather chart ! - Copyright ORBIFLY December 2007 - Disclaimer

ORBIFLY MET'MAP TEAM :

Programming & Development : Alexandra Zaïnal
Concept & original design : Baudouin d'Aumeries
Assistance for programming : Marc-Olivier Méhu
Technical & hardware support : Manuel Goepfert

Contact : metmap@orbifly.com




SOURCES & CREDITS :

   NOAA